createdAt,value
2022-09-10T00:01:36.893Z,12.40
2022-09-10T00:04:12.132Z,12.40
2022-09-10T00:06:40.962Z,12.30
2022-09-10T00:09:09.459Z,12.20
2022-09-10T00:11:39.710Z,12.30
2022-09-10T00:14:10.543Z,12.20
2022-09-10T00:16:38.550Z,12.20
2022-09-10T00:19:06.733Z,12.10
2022-09-10T00:21:35.774Z,12.00
2022-09-10T00:24:05.290Z,11.90
2022-09-10T00:26:38.350Z,11.90
2022-09-10T00:29:08.416Z,11.90
2022-09-10T00:31:37.364Z,11.80
2022-09-10T00:34:06.097Z,11.80
2022-09-10T00:36:36.812Z,11.70
2022-09-10T00:39:10.756Z,11.70
2022-09-10T00:41:41.295Z,11.70
2022-09-10T00:44:41.709Z,11.80
2022-09-10T00:47:36.598Z,11.80
2022-09-10T00:50:26.616Z,11.60
2022-09-10T00:52:58.248Z,11.50
2022-09-10T00:55:26.120Z,11.60
2022-09-10T00:57:57.703Z,11.60
2022-09-10T01:00:25.525Z,11.50
2022-09-10T01:02:54.165Z,11.50
2022-09-10T01:05:23.515Z,11.50
2022-09-10T01:07:52.036Z,11.40
2022-09-10T01:10:28.082Z,11.30
2022-09-10T01:13:14.457Z,11.20
2022-09-10T01:15:57.214Z,11.20
2022-09-10T01:19:00.005Z,11.20
2022-09-10T01:21:49.717Z,11.30
2022-09-10T01:24:36.312Z,11.20
2022-09-10T01:27:23.244Z,11.30
2022-09-10T01:30:14.785Z,11.20
2022-09-10T01:32:52.050Z,11.00
2022-09-10T01:35:21.552Z,11.10
2022-09-10T01:37:59.219Z,11.00
2022-09-10T01:40:30.328Z,11.10
2022-09-10T01:43:04.409Z,11.10
2022-09-10T01:45:51.561Z,11.20
2022-09-10T01:48:56.201Z,11.10
2022-09-10T01:52:10.623Z,11.10
2022-09-10T01:55:00.513Z,11.10
2022-09-10T01:57:55.658Z,10.90
2022-09-10T02:00:33.396Z,10.90
2022-09-10T02:03:12.669Z,11.00
2022-09-10T02:05:43.763Z,10.90
2022-09-10T02:08:24.097Z,11.00
2022-09-10T02:10:55.882Z,10.80
2022-09-10T02:13:30.191Z,10.80
2022-09-10T02:16:40.416Z,10.90
2022-09-10T02:19:09.178Z,10.80
2022-09-10T02:21:38.090Z,10.80
2022-09-10T02:24:10.112Z,10.90
2022-09-10T02:26:41.597Z,10.80
2022-09-10T02:29:12.292Z,11.00
2022-09-10T02:31:40.835Z,10.90
2022-09-10T02:34:08.642Z,10.90
2022-09-10T02:36:36.858Z,10.90
2022-09-10T02:39:05.213Z,10.80
2022-09-10T02:41:34.329Z,10.80
2022-09-10T02:44:03.982Z,10.70
2022-09-10T02:46:31.991Z,10.70
2022-09-10T02:49:00.117Z,10.60
2022-09-10T02:51:30.992Z,10.40
2022-09-10T02:53:59.757Z,10.40
2022-09-10T02:56:27.379Z,10.30
2022-09-10T02:58:55.068Z,10.50
2022-09-10T03:01:26.453Z,10.50
2022-09-10T03:04:00.113Z,10.30
2022-09-10T03:06:28.232Z,10.20
2022-09-10T03:08:56.109Z,10.30
2022-09-10T03:11:24.684Z,10.30
2022-09-10T03:13:53.937Z,10.30
2022-09-10T03:16:22.185Z,10.30
2022-09-10T03:18:52.054Z,10.50
2022-09-10T03:21:43.322Z,10.40
2022-09-10T03:24:15.181Z,10.30
2022-09-10T03:26:44.543Z,10.30
2022-09-10T03:29:13.284Z,10.30
2022-09-10T03:31:42.769Z,10.20
2022-09-10T03:34:12.658Z,10.10
2022-09-10T03:36:41.683Z,10.00
2022-09-10T03:39:11.303Z,10.00
2022-09-10T03:41:39.112Z,10.10
2022-09-10T03:44:06.982Z,10.10
2022-09-10T03:46:34.699Z,10.10
2022-09-10T03:49:07.651Z,10.20
2022-09-10T03:51:36.128Z,10.30
2022-09-10T03:54:04.550Z,10.20
2022-09-10T03:56:34.239Z,10.20
2022-09-10T03:59:02.021Z,10.00
2022-09-10T04:01:30.139Z,10.00
2022-09-10T04:03:58.601Z,10.10
2022-09-10T04:06:28.495Z,10.10
2022-09-10T04:08:56.498Z,10.20
2022-09-10T04:11:27.657Z,10.20
2022-09-10T04:13:57.531Z,10.20
2022-09-10T04:16:27.502Z,10.10
2022-09-10T04:18:55.544Z,10.10
2022-09-10T04:21:24.955Z,10.10
2022-09-10T04:23:56.611Z,10.20
2022-09-10T04:26:25.785Z,10.30
2022-09-10T04:28:53.964Z,10.40
2022-09-10T04:31:22.609Z,10.40
2022-09-10T04:33:53.742Z,10.50
2022-09-10T04:36:25.629Z,10.40
2022-09-10T04:38:53.394Z,10.30
2022-09-10T04:41:21.434Z,10.20
2022-09-10T04:43:49.146Z,10.20
2022-09-10T04:46:17.747Z,10.30
2022-09-10T04:48:46.387Z,10.30
2022-09-10T04:51:18.409Z,10.40
2022-09-10T04:53:48.677Z,10.30
2022-09-10T04:56:16.968Z,10.10
2022-09-10T04:58:45.445Z,10.10
2022-09-10T05:01:14.308Z,10.20
2022-09-10T05:03:44.585Z,10.30
2022-09-10T05:06:12.999Z,10.30
2022-09-10T05:08:41.316Z,10.10
2022-09-10T05:11:10.219Z,10.10
2022-09-10T05:13:37.873Z,10.10
2022-09-10T05:16:06.763Z,10.10
2022-09-10T05:18:35.158Z,10.10
2022-09-10T05:21:05.350Z,10.30
2022-09-10T05:23:34.596Z,10.20
2022-09-10T05:26:02.840Z,10.20
2022-09-10T05:28:32.744Z,10.20
2022-09-10T05:31:00.439Z,10.20
2022-09-10T05:33:29.493Z,10.20
2022-09-10T05:35:57.385Z,10.30
2022-09-10T05:38:26.595Z,10.30
2022-09-10T05:40:54.795Z,10.60
2022-09-10T05:43:23.543Z,10.90
2022-09-10T05:45:52.388Z,11.10
2022-09-10T05:48:21.584Z,11.20
2022-09-10T05:50:50.952Z,11.40
2022-09-10T05:53:18.789Z,11.30
2022-09-10T05:55:46.631Z,11.30
2022-09-10T05:58:16.753Z,11.40
2022-09-10T06:00:44.732Z,11.30
2022-09-10T06:03:14.263Z,11.30
2022-09-10T06:05:52.809Z,11.30
2022-09-10T06:08:37.876Z,11.30
2022-09-10T06:11:12.226Z,11.10
2022-09-10T06:13:48.547Z,11.30
2022-09-10T06:16:17.662Z,11.40
2022-09-10T06:18:46.168Z,11.30
2022-09-10T06:21:19.785Z,11.40
2022-09-10T06:23:54.776Z,11.50
2022-09-10T06:26:24.134Z,11.60
2022-09-10T06:28:56.954Z,11.80
2022-09-10T06:31:25.718Z,11.40
2022-09-10T06:33:54.348Z,11.20
2022-09-10T06:36:25.716Z,11.00
2022-09-10T06:38:55.781Z,10.90
2022-09-10T06:41:24.659Z,11.00
2022-09-10T06:43:58.485Z,11.20
2022-09-10T06:49:46.250Z,11.50
2022-09-10T06:52:15.461Z,11.50
2022-09-10T06:54:43.311Z,11.60
2022-09-10T06:57:27.630Z,11.60
2022-09-10T06:59:55.376Z,11.60
2022-09-10T07:02:23.997Z,11.60
2022-09-10T07:04:53.180Z,11.60
2022-09-10T07:07:22.140Z,11.80
2022-09-10T07:09:51.472Z,11.90
2022-09-10T07:12:19.647Z,12.00
2022-09-10T07:14:47.638Z,12.00
2022-09-10T07:17:15.665Z,12.00
2022-09-10T07:19:43.400Z,11.70
2022-09-10T07:22:21.753Z,11.70
2022-09-10T07:24:51.581Z,11.80
2022-09-10T07:27:31.246Z,11.90
2022-09-10T07:29:59.160Z,11.90
2022-09-10T07:32:26.873Z,12.10
2022-09-10T07:35:04.963Z,12.10
2022-09-10T07:37:32.869Z,12.30
2022-09-10T07:40:04.739Z,12.40
2022-09-10T07:42:32.739Z,12.50
2022-09-10T07:45:00.797Z,12.50
2022-09-10T07:47:28.555Z,12.50
2022-09-10T07:49:57.093Z,12.60
2022-09-10T07:52:24.789Z,12.60
2022-09-10T07:54:55.418Z,12.80
2022-09-10T07:57:24.983Z,12.90
2022-09-10T07:59:54.803Z,12.90
2022-09-10T08:02:25.905Z,13.00
2022-09-10T08:04:59.617Z,13.00
2022-09-10T08:07:28.139Z,13.10
2022-09-10T08:09:56.300Z,13.20
2022-09-10T08:12:25.593Z,13.30
2022-09-10T08:14:56.982Z,13.40
2022-09-10T08:17:25.629Z,13.40
2022-09-10T08:19:53.954Z,13.50
2022-09-10T08:22:21.825Z,13.60
2022-09-10T08:24:56.174Z,13.70
2022-09-10T08:27:28.846Z,13.80
2022-09-10T08:29:57.817Z,13.90
2022-09-10T08:32:25.603Z,14.00
2022-09-10T08:34:54.178Z,14.10
2022-09-10T08:37:22.009Z,14.20
2022-09-10T08:39:50.674Z,14.40
2022-09-10T08:42:40.184Z,14.40
2022-09-10T08:45:23.422Z,14.50
2022-09-10T08:47:53.638Z,14.80
2022-09-10T08:50:28.133Z,14.80
2022-09-10T08:53:16.650Z,14.80
2022-09-10T08:55:48.911Z,14.90
2022-09-10T08:58:34.019Z,15.00
2022-09-10T09:01:06.876Z,15.20
2022-09-10T09:03:43.004Z,15.40
2022-09-10T09:06:36.031Z,15.40
2022-09-10T09:09:04.405Z,15.60
2022-09-10T09:11:57.260Z,15.80
2022-09-10T09:15:06.946Z,15.80
2022-09-10T09:18:04.754Z,16.00
2022-09-10T09:20:39.036Z,16.10
2022-09-10T09:23:15.447Z,16.40
2022-09-10T09:25:49.365Z,16.50
2022-09-10T09:28:42.106Z,16.60
2022-09-10T09:31:42.610Z,16.90
2022-09-10T09:34:19.676Z,17.10
2022-09-10T09:36:52.124Z,17.30
2022-09-10T09:39:38.097Z,17.40
2022-09-10T09:42:11.496Z,17.50
2022-09-10T09:44:46.995Z,17.70
2022-09-10T09:47:15.225Z,17.90
2022-09-10T09:49:47.644Z,18.20
2022-09-10T09:52:26.300Z,18.40
2022-09-10T09:55:16.069Z,18.50
2022-09-10T09:57:43.991Z,18.70
2022-09-10T10:00:34.528Z,18.90
2022-09-10T10:03:26.711Z,19.10
2022-09-10T10:06:07.960Z,19.30
2022-09-10T10:08:42.790Z,19.30
2022-09-10T10:11:14.366Z,19.20
2022-09-10T10:13:44.986Z,19.20
2022-09-10T10:16:39.887Z,19.60
2022-09-10T10:24:01.007Z,19.60
2022-09-10T10:30:54.559Z,20.20
2022-09-10T10:35:04.145Z,20.00
2022-09-10T10:42:11.542Z,20.60
2022-09-10T10:45:28.615Z,20.70
2022-09-10T10:48:15.415Z,21.00
2022-09-10T10:58:24.009Z,22.50
2022-09-10T11:01:16.079Z,23.40
2022-09-10T11:04:09.819Z,23.00
2022-09-10T11:06:52.164Z,23.40
2022-09-10T11:09:25.334Z,23.80
2022-09-10T11:12:05.771Z,23.90
2022-09-10T11:15:02.513Z,23.90
2022-09-10T11:17:41.424Z,24.30
2022-09-10T11:20:28.502Z,24.50
2022-09-10T11:23:20.526Z,25.30
2022-09-10T11:26:21.511Z,24.30
2022-09-10T11:29:17.257Z,23.90
2022-09-10T11:32:06.510Z,23.40
2022-09-10T11:34:58.126Z,22.60
2022-09-10T11:37:35.543Z,22.00
2022-09-10T11:40:06.851Z,21.90
2022-09-10T11:42:42.892Z,21.40
2022-09-10T11:45:28.375Z,21.30
2022-09-10T11:48:00.354Z,20.80
2022-09-10T11:50:36.352Z,20.50
2022-09-10T11:53:07.659Z,20.70
2022-09-10T11:56:05.154Z,21.20
2022-09-10T11:58:49.132Z,21.60
2022-09-10T12:01:41.663Z,21.80
2022-09-10T12:04:18.770Z,22.00
2022-09-10T12:07:10.594Z,21.90
2022-09-10T12:10:10.985Z,21.60
2022-09-10T12:12:50.219Z,21.40
2022-09-10T12:15:23.902Z,21.10
2022-09-10T12:18:04.428Z,20.70
2022-09-10T12:20:37.757Z,20.40
2022-09-10T12:23:06.356Z,20.10
2022-09-10T12:25:35.004Z,19.80
2022-09-10T12:28:08.201Z,19.60
2022-09-10T12:30:39.519Z,19.50
2022-09-10T12:33:13.250Z,19.10
2022-09-10T12:35:49.749Z,18.90
2022-09-10T12:39:03.540Z,18.50
2022-09-10T12:41:31.193Z,18.00
2022-09-10T12:44:00.678Z,16.30
2022-09-10T12:46:31.143Z,15.30
2022-09-10T12:49:01.786Z,14.60
2022-09-10T12:52:00.636Z,14.10
2022-09-10T12:54:50.467Z,13.70
2022-09-10T12:57:46.388Z,13.60
2022-09-10T13:00:22.218Z,13.40
2022-09-10T13:03:11.305Z,13.30
2022-09-10T13:05:53.431Z,13.30
2022-09-10T13:08:27.434Z,13.40
2022-09-10T13:11:02.929Z,13.30
2022-09-10T13:13:39.345Z,13.10
2022-09-10T13:16:14.562Z,13.50
2022-09-10T13:18:42.292Z,13.40
2022-09-10T13:21:51.274Z,13.40
2022-09-10T13:24:34.673Z,13.60
2022-09-10T13:27:22.739Z,13.80
2022-09-10T13:30:08.570Z,13.90
2022-09-10T13:32:47.159Z,14.10
2022-09-10T13:35:19.689Z,14.30
2022-09-10T13:38:02.441Z,14.40
2022-09-10T13:40:57.351Z,14.60
2022-09-10T13:43:52.828Z,14.70
2022-09-10T13:46:31.188Z,14.70
2022-09-10T13:49:12.277Z,14.90
2022-09-10T13:51:54.345Z,15.10
2022-09-10T13:54:35.931Z,15.20
2022-09-10T13:57:18.927Z,15.30
2022-09-10T13:59:50.459Z,15.20
2022-09-10T14:02:21.651Z,15.10
2022-09-10T14:04:52.026Z,15.10
2022-09-10T14:07:26.282Z,15.10
2022-09-10T14:10:15.620Z,15.00
2022-09-10T14:12:44.350Z,14.90
2022-09-10T14:15:21.482Z,15.10
2022-09-10T14:18:00.217Z,15.40
2022-09-10T14:20:34.023Z,15.50
2022-09-10T14:23:15.312Z,15.50
2022-09-10T14:25:45.159Z,15.50
2022-09-10T14:28:16.396Z,15.50
2022-09-10T14:30:48.982Z,15.40
2022-09-10T14:33:37.798Z,15.50
2022-09-10T14:36:21.544Z,15.50
2022-09-10T14:39:15.722Z,15.60
2022-09-10T14:41:44.438Z,15.70
2022-09-10T14:44:22.423Z,15.60
2022-09-10T14:46:53.321Z,15.40
2022-09-10T14:49:33.155Z,15.40
2022-09-10T14:52:03.518Z,15.20
2022-09-10T14:54:35.576Z,15.00
2022-09-10T14:57:13.824Z,14.90
2022-09-10T14:59:44.045Z,14.90
2022-09-10T15:02:23.274Z,14.80
2022-09-10T15:04:51.094Z,14.90
2022-09-10T15:07:20.989Z,15.10
2022-09-10T15:09:51.865Z,15.20
2022-09-10T15:12:29.241Z,15.20
2022-09-10T15:14:58.179Z,15.30
2022-09-10T15:17:25.933Z,15.20
2022-09-10T15:19:55.349Z,15.10
2022-09-10T15:22:26.731Z,15.20
2022-09-10T15:25:10.450Z,15.20
2022-09-10T15:27:40.885Z,15.30
2022-09-10T15:30:09.139Z,15.20
2022-09-10T15:32:37.065Z,15.20
2022-09-10T15:35:05.819Z,15.20
2022-09-10T15:37:33.583Z,15.40
2022-09-10T15:40:03.872Z,15.40
2022-09-10T15:42:31.703Z,15.40
2022-09-10T15:44:59.368Z,15.40
2022-09-10T15:47:30.507Z,15.40
2022-09-10T15:49:59.765Z,15.20
2022-09-10T15:52:27.503Z,15.10
2022-09-10T15:55:01.064Z,15.10
2022-09-10T15:57:31.045Z,15.00
2022-09-10T16:00:03.028Z,15.00
2022-09-10T16:02:32.039Z,14.80
2022-09-10T16:05:02.417Z,14.70
2022-09-10T16:07:32.647Z,14.50
2022-09-10T16:10:00.428Z,14.30
2022-09-10T16:12:28.244Z,14.00
2022-09-10T16:15:02.906Z,13.80
2022-09-10T16:17:34.231Z,13.80
2022-09-10T16:20:04.754Z,13.60
2022-09-10T16:22:34.648Z,13.60
2022-09-10T16:25:03.032Z,13.50
2022-09-10T16:27:31.337Z,13.50
2022-09-10T16:30:01.004Z,13.30
2022-09-10T16:32:31.441Z,13.30
2022-09-10T16:35:00.782Z,13.20
2022-09-10T16:37:33.454Z,13.00
2022-09-10T16:40:01.456Z,13.00
2022-09-10T16:42:29.285Z,12.90
2022-09-10T16:44:56.960Z,13.00
2022-09-10T16:47:24.763Z,12.90
2022-09-10T16:49:55.688Z,12.80
2022-09-10T16:52:23.301Z,12.80
2022-09-10T16:54:52.722Z,12.70
2022-09-10T16:57:21.333Z,12.70
2022-09-10T16:59:49.158Z,12.60
2022-09-10T17:02:16.970Z,12.50
2022-09-10T17:04:44.610Z,12.40
2022-09-10T17:07:12.266Z,12.30
2022-09-10T17:09:40.066Z,12.40
2022-09-10T17:12:10.535Z,12.40
2022-09-10T17:14:39.518Z,12.30
2022-09-10T17:17:07.177Z,12.30
2022-09-10T17:19:34.992Z,12.20
2022-09-10T17:22:02.796Z,12.20
2022-09-10T17:24:30.511Z,12.20
2022-09-10T17:27:00.420Z,12.30
2022-09-10T17:29:30.604Z,12.30
2022-09-10T17:31:58.625Z,12.30
2022-09-10T17:34:29.853Z,12.30
2022-09-10T17:36:57.746Z,12.30
2022-09-10T17:39:28.509Z,12.30
2022-09-10T17:41:56.468Z,12.20
2022-09-10T17:44:25.138Z,12.20
2022-09-10T17:46:52.907Z,12.20
2022-09-10T17:49:22.537Z,12.20
2022-09-10T17:51:51.223Z,12.10
2022-09-10T17:54:21.494Z,12.10
2022-09-10T17:56:49.395Z,12.10
2022-09-10T17:59:19.805Z,12.10
2022-09-10T18:01:49.898Z,12.00
2022-09-10T18:04:18.934Z,12.00
2022-09-10T18:06:52.432Z,11.90
2022-09-10T18:09:21.683Z,12.00
2022-09-10T18:11:50.739Z,12.00
2022-09-10T18:14:23.125Z,12.00
2022-09-10T18:16:53.638Z,11.90
2022-09-10T18:19:21.783Z,11.90
2022-09-10T18:21:51.143Z,11.90
2022-09-10T18:24:24.246Z,11.80
2022-09-10T18:26:54.490Z,11.80
2022-09-10T18:29:30.174Z,11.80
2022-09-10T18:32:03.914Z,11.80
2022-09-10T18:34:31.649Z,11.80
2022-09-10T18:37:01.344Z,11.70
2022-09-10T18:39:31.460Z,11.70
2022-09-10T18:42:01.238Z,11.80
2022-09-10T18:44:31.490Z,11.80
2022-09-10T18:46:59.760Z,11.80
2022-09-10T18:49:27.737Z,11.80
2022-09-10T18:51:56.709Z,11.70
2022-09-10T18:54:29.838Z,11.70
2022-09-10T18:56:58.383Z,11.70
2022-09-10T18:59:26.424Z,11.60
2022-09-10T19:01:56.006Z,11.70
2022-09-10T19:04:27.534Z,11.70
2022-09-10T19:06:56.564Z,11.60
2022-09-10T19:09:29.649Z,11.60
2022-09-10T19:11:59.361Z,11.60
2022-09-10T19:14:30.898Z,11.70
2022-09-10T19:17:00.526Z,11.70
2022-09-10T19:19:33.954Z,11.60
2022-09-10T19:22:07.251Z,11.50
2022-09-10T19:27:23.675Z,11.60
2022-09-10T19:29:52.040Z,11.70
2022-09-10T19:32:20.218Z,11.60
2022-09-10T19:34:51.615Z,11.70
2022-09-10T19:37:19.853Z,11.70
2022-09-10T19:39:47.813Z,11.70
2022-09-10T19:42:16.452Z,11.80
2022-09-10T19:44:44.498Z,11.90
2022-09-10T19:47:12.298Z,11.80
2022-09-10T19:49:40.019Z,12.00
2022-09-10T19:52:07.651Z,12.10
2022-09-10T19:54:35.392Z,12.10
2022-09-10T19:57:03.211Z,11.90
2022-09-10T19:59:30.917Z,11.80
2022-09-10T20:01:58.649Z,11.60
2022-09-10T20:04:27.922Z,11.70
2022-09-10T20:06:55.640Z,11.70
2022-09-10T20:09:23.339Z,11.70
2022-09-10T20:11:51.269Z,11.60
2022-09-10T20:14:19.673Z,11.70
2022-09-10T20:16:47.297Z,11.70
2022-09-10T20:19:22.111Z,11.60
2022-09-10T20:21:50.170Z,11.60
2022-09-10T20:24:17.788Z,11.40
2022-09-10T20:26:46.683Z,11.40
2022-09-10T20:29:16.590Z,11.40
2022-09-10T20:31:46.301Z,11.50
2022-09-10T20:34:19.788Z,11.50
2022-09-10T20:36:51.235Z,11.50
2022-09-10T20:39:25.263Z,11.50
2022-09-10T20:41:53.477Z,11.60
2022-09-10T20:44:21.439Z,11.70
2022-09-10T20:46:49.150Z,11.80
2022-09-10T20:49:16.954Z,11.80
2022-09-10T20:51:45.419Z,11.80
2022-09-10T20:54:15.841Z,11.80
2022-09-10T20:56:44.238Z,11.80
2022-09-10T20:59:14.751Z,11.70
2022-09-10T21:01:44.466Z,11.70
2022-09-10T21:04:13.245Z,11.70
2022-09-10T21:06:41.082Z,11.70
2022-09-10T21:09:08.835Z,11.80
2022-09-10T21:11:36.965Z,11.80
2022-09-10T21:14:06.824Z,11.70
2022-09-10T21:16:37.370Z,11.50
2022-09-10T21:19:10.362Z,11.50
2022-09-10T21:21:41.718Z,11.50
2022-09-10T21:24:12.677Z,11.30
2022-09-10T21:26:43.555Z,11.20
2022-09-10T21:29:19.943Z,11.30
2022-09-10T21:31:49.761Z,11.20
2022-09-10T21:34:17.703Z,11.20
2022-09-10T21:36:45.467Z,11.10
2022-09-10T21:39:15.640Z,11.20
2022-09-10T21:41:49.024Z,11.00
2022-09-10T21:44:20.024Z,11.00
2022-09-10T21:46:48.903Z,10.80
2022-09-10T21:49:17.140Z,10.90
2022-09-10T21:51:45.372Z,10.90
2022-09-10T21:54:21.186Z,11.00
2022-09-10T21:56:49.715Z,10.90
2022-09-10T21:59:17.386Z,11.00
2022-09-10T22:01:46.968Z,11.10
2022-09-10T22:04:19.976Z,11.20
2022-09-10T22:06:49.535Z,11.20
2022-09-10T22:09:17.644Z,11.30
2022-09-10T22:12:01.361Z,11.10
2022-09-10T22:14:36.245Z,11.00
2022-09-10T22:17:05.486Z,11.00
2022-09-10T22:19:33.163Z,10.90
2022-09-10T22:22:00.841Z,11.10
2022-09-10T22:24:29.562Z,11.00
2022-09-10T22:26:57.979Z,10.90
2022-09-10T22:29:25.649Z,11.00
2022-09-10T22:31:53.361Z,11.10
2022-09-10T22:34:21.138Z,11.30
2022-09-10T22:36:49.743Z,11.10
2022-09-10T22:39:19.769Z,11.30
2022-09-10T22:41:48.991Z,11.20
2022-09-10T22:44:20.290Z,11.10
2022-09-10T22:46:48.321Z,11.00
2022-09-10T22:49:16.610Z,10.90
2022-09-10T22:51:44.696Z,10.90
2022-09-10T22:54:12.368Z,10.90
2022-09-10T22:56:40.145Z,10.80
2022-09-10T22:59:11.292Z,10.70
2022-09-10T23:01:39.090Z,10.70
2022-09-10T23:04:08.367Z,10.70
2022-09-10T23:06:38.072Z,10.80
2022-09-10T23:09:12.867Z,10.70
2022-09-10T23:11:41.145Z,10.70
2022-09-10T23:14:13.106Z,10.70
2022-09-10T23:16:43.122Z,10.60
2022-09-10T23:19:17.337Z,10.70
2022-09-10T23:21:48.104Z,10.70
2022-09-10T23:24:18.206Z,10.80
2022-09-10T23:26:46.209Z,10.90
2022-09-10T23:29:17.405Z,10.90
2022-09-10T23:31:46.144Z,10.90
2022-09-10T23:34:16.230Z,10.90
2022-09-10T23:36:45.695Z,11.00
2022-09-10T23:39:24.402Z,11.10
2022-09-10T23:41:54.781Z,11.10
2022-09-10T23:44:24.347Z,11.20
2022-09-10T23:46:53.600Z,11.20
2022-09-10T23:49:22.088Z,11.40
2022-09-10T23:51:50.687Z,11.40
2022-09-10T23:54:18.672Z,11.40
2022-09-10T23:56:46.332Z,11.40
2022-09-10T23:59:15.389Z,11.40
